sensor_id;sensor_type;location;lat;lon;timestamp;P1;durP1;ratioP1;P2;durP2;ratioP2
54143;SDS011;40050;47.324;18.792;2023-05-10T00:01:51;6.84;;;3.68;;
54143;SDS011;40050;47.324;18.792;2023-05-10T00:03:52;5.78;;;3.68;;
54143;SDS011;40050;47.324;18.792;2023-05-10T00:05:53;5.98;;;3.38;;
54143;SDS011;40050;47.324;18.792;2023-05-10T00:07:54;3.95;;;3.08;;
54143;SDS011;40050;47.324;18.792;2023-05-10T00:09:55;4.44;;;3.08;;
54143;SDS011;40050;47.324;18.792;2023-05-10T00:11:56;5.59;;;3.08;;
54143;SDS011;40050;47.324;18.792;2023-05-10T00:13:57;4.73;;;2.98;;
54143;SDS011;40050;47.324;18.792;2023-05-10T00:15:58;5.40;;;3.18;;
54143;SDS011;40050;47.324;18.792;2023-05-10T00:17:59;4.34;;;3.28;;
54143;SDS011;40050;47.324;18.792;2023-05-10T00:20:00;5.39;;;3.58;;
54143;SDS011;40050;47.324;18.792;2023-05-10T00:22:01;4.81;;;2.98;;
54143;SDS011;40050;47.324;18.792;2023-05-10T00:24:02;4.62;;;3.28;;
54143;SDS011;40050;47.324;18.792;2023-05-10T00:26:03;5.20;;;3.08;;
54143;SDS011;40050;47.324;18.792;2023-05-10T00:28:04;4.91;;;2.79;;
54143;SDS011;40050;47.324;18.792;2023-05-10T00:30:05;3.86;;;2.98;;
54143;SDS011;40050;47.324;18.792;2023-05-10T00:32:05;4.44;;;2.98;;
54143;SDS011;40050;47.324;18.792;2023-05-10T00:34:06;5.10;;;3.38;;
54143;SDS011;40050;47.324;18.792;2023-05-10T00:36:07;6.07;;;3.28;;
54143;SDS011;40050;47.324;18.792;2023-05-10T00:38:08;3.47;;;2.78;;
54143;SDS011;40050;47.324;18.792;2023-05-10T00:40:09;5.67;;;3.38;;
54143;SDS011;40050;47.324;18.792;2023-05-10T00:42:10;4.62;;;2.98;;
54143;SDS011;40050;47.324;18.792;2023-05-10T00:44:11;4.62;;;3.18;;
54143;SDS011;40050;47.324;18.792;2023-05-10T00:46:12;4.90;;;3.48;;
54143;SDS011;40050;47.324;18.792;2023-05-10T00:48:13;4.61;;;3.28;;
54143;SDS011;40050;47.324;18.792;2023-05-10T00:50:14;5.09;;;3.48;;
54143;SDS011;40050;47.324;18.792;2023-05-10T00:52:15;4.70;;;3.58;;
54143;SDS011;40050;47.324;18.792;2023-05-10T00:54:17;7.49;;;3.38;;
54143;SDS011;40050;47.324;18.792;2023-05-10T00:56:17;5.11;;;3.48;;
54143;SDS011;40050;47.324;18.792;2023-05-10T00:58:18;5.12;;;3.18;;
54143;SDS011;40050;47.324;18.792;2023-05-10T01:00:20;9.28;;;3.78;;
54143;SDS011;40050;47.324;18.792;2023-05-10T01:02:21;5.03;;;3.38;;
54143;SDS011;40050;47.324;18.792;2023-05-10T01:04:22;5.60;;;3.68;;
54143;SDS011;40050;47.324;18.792;2023-05-10T01:06:23;4.83;;;3.38;;
54143;SDS011;40050;47.324;18.792;2023-05-10T01:08:24;5.68;;;3.88;;
54143;SDS011;40050;47.324;18.792;2023-05-10T01:10:25;6.65;;;4.08;;
54143;SDS011;40050;47.324;18.792;2023-05-10T01:12:26;5.20;;;3.88;;
54143;SDS011;40050;47.324;18.792;2023-05-10T01:14:27;7.99;;;4.28;;
54143;SDS011;40050;47.324;18.792;2023-05-10T01:16:29;6.35;;;3.98;;
54143;SDS011;40050;47.324;18.792;2023-05-10T01:18:31;6.83;;;4.08;;
54143;SDS011;40050;47.324;18.792;2023-05-10T01:20:34;5.67;;;4.27;;
54143;SDS011;40050;47.324;18.792;2023-05-10T01:25:37;6.52;;;4.47;;
54143;SDS011;40050;47.324;18.792;2023-05-10T01:28:04;6.70;;;4.57;;
54143;SDS011;40050;47.324;18.792;2023-05-10T01:32:16;7.92;;;4.67;;
54143;SDS011;40050;47.324;18.792;2023-05-10T01:34:20;7.35;;;4.86;;
54143;SDS011;40050;47.324;18.792;2023-05-10T01:38:50;6.20;;;4.66;;
54143;SDS011;40050;47.324;18.792;2023-05-10T01:41:09;7.52;;;4.66;;
54143;SDS011;40050;47.324;18.792;2023-05-10T01:43:03;8.00;;;4.66;;
54143;SDS011;40050;47.324;18.792;2023-05-10T01:45:32;8.28;;;4.86;;
54143;SDS011;40050;47.324;18.792;2023-05-10T01:47:44;8.08;;;4.96;;
54143;SDS011;40050;47.324;18.792;2023-05-10T01:50:01;9.21;;;5.16;;
54143;SDS011;40050;47.324;18.792;2023-05-10T01:52:12;8.07;;;5.06;;
54143;SDS011;40050;47.324;18.792;2023-05-10T01:54:10;8.83;;;5.06;;
54143;SDS011;40050;47.324;18.792;2023-05-10T01:56:15;7.31;;;4.76;;
54143;SDS011;40050;47.324;18.792;2023-05-10T01:58:21;8.45;;;5.06;;
54143;SDS011;40050;47.324;18.792;2023-05-10T02:00:20;7.59;;;5.06;;
54143;SDS011;40050;47.324;18.792;2023-05-10T02:02:22;8.17;;;5.06;;
54143;SDS011;40050;47.324;18.792;2023-05-10T02:04:24;7.98;;;5.35;;
54143;SDS011;40050;47.324;18.792;2023-05-10T02:06:26;7.87;;;4.86;;
54143;SDS011;40050;47.324;18.792;2023-05-10T02:08:27;7.49;;;5.25;;
54143;SDS011;40050;47.324;18.792;2023-05-10T02:10:29;7.40;;;5.25;;
54143;SDS011;40050;47.324;18.792;2023-05-10T02:12:34;7.01;;;5.35;;
54143;SDS011;40050;47.324;18.792;2023-05-10T02:14:34;8.71;;;5.45;;
54143;SDS011;40050;47.324;18.792;2023-05-10T02:16:36;8.69;;;5.15;;
54143;SDS011;40050;47.324;18.792;2023-05-10T02:18:37;8.51;;;5.35;;
54143;SDS011;40050;47.324;18.792;2023-05-10T02:20:39;8.41;;;5.05;;
54143;SDS011;40050;47.324;18.792;2023-05-10T02:22:40;6.90;;;5.05;;
54143;SDS011;40050;47.324;18.792;2023-05-10T02:24:42;7.95;;;4.85;;
54143;SDS011;40050;47.324;18.792;2023-05-10T02:26:44;8.24;;;4.95;;
54143;SDS011;40050;47.324;18.792;2023-05-10T02:28:45;8.15;;;5.15;;
54143;SDS011;40050;47.324;18.792;2023-05-10T02:30:46;6.82;;;5.15;;
54143;SDS011;40050;47.324;18.792;2023-05-10T02:32:48;7.01;;;5.15;;
54143;SDS011;40050;47.324;18.792;2023-05-10T02:34:50;7.01;;;5.25;;
54143;SDS011;40050;47.324;18.792;2023-05-10T02:36:52;7.38;;;5.25;;
54143;SDS011;40050;47.324;18.792;2023-05-10T02:38:53;7.29;;;4.85;;
54143;SDS011;40050;47.324;18.792;2023-05-10T02:40:54;7.38;;;5.55;;
54143;SDS011;40050;47.324;18.792;2023-05-10T02:42:59;9.08;;;4.95;;
54143;SDS011;40050;47.324;18.792;2023-05-10T02:45:01;9.74;;;5.25;;
54143;SDS011;40050;47.324;18.792;2023-05-10T02:47:01;7.37;;;5.05;;
54143;SDS011;40050;47.324;18.792;2023-05-10T02:49:02;7.66;;;5.15;;
54143;SDS011;40050;47.324;18.792;2023-05-10T02:51:05;6.99;;;4.85;;
54143;SDS011;40050;47.324;18.792;2023-05-10T02:53:11;10.48;;;4.95;;
54143;SDS011;40050;47.324;18.792;2023-05-10T02:55:16;8.30;;;4.75;;
54143;SDS011;40050;47.324;18.792;2023-05-10T02:57:29;7.54;;;5.15;;
54143;SDS011;40050;47.324;18.792;2023-05-10T02:59:29;9.15;;;5.84;;
54143;SDS011;40050;47.324;18.792;2023-05-10T03:01:31;6.97;;;5.05;;
54143;SDS011;40050;47.324;18.792;2023-05-10T03:03:31;8.38;;;4.95;;
54143;SDS011;40050;47.324;18.792;2023-05-10T03:05:32;7.92;;;5.64;;
54143;SDS011;40050;47.324;18.792;2023-05-10T03:07:33;7.34;;;5.54;;
54143;SDS011;40050;47.324;18.792;2023-05-10T03:09:35;9.98;;;5.74;;
54143;SDS011;40050;47.324;18.792;2023-05-10T03:12:01;7.91;;;5.64;;
54143;SDS011;40050;47.324;18.792;2023-05-10T03:14:24;9.60;;;5.74;;
54143;SDS011;40050;47.324;18.792;2023-05-10T03:16:42;7.34;;;5.54;;
54143;SDS011;40050;47.324;18.792;2023-05-10T03:20:42;8.77;;;5.44;;
54143;SDS011;40050;47.324;18.792;2023-05-10T03:22:47;7.92;;;5.54;;
54143;SDS011;40050;47.324;18.792;2023-05-10T03:24:45;7.17;;;5.25;;
54143;SDS011;40050;47.324;18.792;2023-05-10T03:26:49;9.33;;;5.44;;
54143;SDS011;40050;47.324;18.792;2023-05-10T03:28:51;9.15;;;5.84;;
54143;SDS011;40050;47.324;18.792;2023-05-10T03:30:53;7.16;;;5.24;;
54143;SDS011;40050;47.324;18.792;2023-05-10T03:32:53;6.79;;;5.05;;
54143;SDS011;40050;47.324;18.792;2023-05-10T03:34:55;6.50;;;5.05;;
54143;SDS011;40050;47.324;18.792;2023-05-10T03:36:56;8.29;;;5.24;;
54143;SDS011;40050;47.324;18.792;2023-05-10T03:38:57;8.00;;;5.44;;
54143;SDS011;40050;47.324;18.792;2023-05-10T03:40:58;7.72;;;5.34;;
54143;SDS011;40050;47.324;18.792;2023-05-10T03:42:59;9.22;;;5.54;;
54143;SDS011;40050;47.324;18.792;2023-05-10T03:45:00;9.50;;;5.64;;
54143;SDS011;40050;47.324;18.792;2023-05-10T03:47:01;8.36;;;5.44;;
54143;SDS011;40050;47.324;18.792;2023-05-10T03:49:03;9.77;;;5.63;;
54143;SDS011;40050;47.324;18.792;2023-05-10T03:51:04;7.61;;;5.63;;
54143;SDS011;40050;47.324;18.792;2023-05-10T03:53:04;7.42;;;5.44;;
54143;SDS011;40050;47.324;18.792;2023-05-10T03:55:06;6.66;;;5.34;;
54143;SDS011;40050;47.324;18.792;2023-05-10T03:57:06;8.25;;;5.53;;
54143;SDS011;40050;47.324;18.792;2023-05-10T03:59:07;7.69;;;5.43;;
54143;SDS011;40050;47.324;18.792;2023-05-10T04:01:08;8.07;;;5.53;;
54143;SDS011;40050;47.324;18.792;2023-05-10T04:03:09;7.41;;;5.24;;
54143;SDS011;40050;47.324;18.792;2023-05-10T04:05:10;7.87;;;5.43;;
54143;SDS011;40050;47.324;18.792;2023-05-10T04:07:11;10.89;;;5.62;;
54143;SDS011;40050;47.324;18.792;2023-05-10T04:09:12;10.86;;;5.81;;
54143;SDS011;40050;47.324;18.792;2023-05-10T04:11:13;7.52;;;5.32;;
54143;SDS011;40050;47.324;18.792;2023-05-10T04:13:14;9.35;;;5.91;;
54143;SDS011;40050;47.324;18.792;2023-05-10T04:15:15;9.15;;;6.00;;
54143;SDS011;40050;47.324;18.792;2023-05-10T04:17:15;10.62;;;5.90;;
54143;SDS011;40050;47.324;18.792;2023-05-10T04:19:16;9.89;;;5.71;;
54143;SDS011;40050;47.324;18.792;2023-05-10T04:21:17;9.80;;;5.90;;
54143;SDS011;40050;47.324;18.792;2023-05-10T04:23:18;12.02;;;5.90;;
54143;SDS011;40050;47.324;18.792;2023-05-10T04:25:19;10.27;;;5.31;;
54143;SDS011;40050;47.324;18.792;2023-05-10T04:27:20;6.94;;;5.32;;
54143;SDS011;40050;47.324;18.792;2023-05-10T04:29:21;9.36;;;6.60;;
54143;SDS011;40050;47.324;18.792;2023-05-10T04:31:22;7.22;;;5.41;;
54143;SDS011;40050;47.324;18.792;2023-05-10T04:33:23;8.24;;;5.71;;
54143;SDS011;40050;47.324;18.792;2023-05-10T04:35:24;8.16;;;6.50;;
54143;SDS011;40050;47.324;18.792;2023-05-10T04:37:24;7.70;;;5.71;;
54143;SDS011;40050;47.324;18.792;2023-05-10T04:39:25;9.10;;;6.01;;
54143;SDS011;40050;47.324;18.792;2023-05-10T04:41:35;7.43;;;6.01;;
54143;SDS011;40050;47.324;18.792;2023-05-10T04:43:36;8.64;;;6.31;;
54143;SDS011;40050;47.324;18.792;2023-05-10T04:45:37;10.05;;;6.51;;
54143;SDS011;40050;47.324;18.792;2023-05-10T04:47:38;8.09;;;5.42;;
54143;SDS011;40050;47.324;18.792;2023-05-10T04:49:39;11.54;;;6.31;;
54143;SDS011;40050;47.324;18.792;2023-05-10T04:51:40;8.02;;;5.42;;
54143;SDS011;40050;47.324;18.792;2023-05-10T04:53:41;8.67;;;5.72;;
54143;SDS011;40050;47.324;18.792;2023-05-10T04:55:42;7.56;;;5.53;;
54143;SDS011;40050;47.324;18.792;2023-05-10T04:57:43;8.03;;;5.53;;
54143;SDS011;40050;47.324;18.792;2023-05-10T04:59:43;8.23;;;5.53;;
54143;SDS011;40050;47.324;18.792;2023-05-10T05:01:44;7.30;;;5.23;;
54143;SDS011;40050;47.324;18.792;2023-05-10T05:03:45;7.22;;;5.53;;
54143;SDS011;40050;47.324;18.792;2023-05-10T05:05:46;7.13;;;5.73;;
54143;SDS011;40050;47.324;18.792;2023-05-10T05:07:47;9.48;;;5.34;;
54143;SDS011;40050;47.324;18.792;2023-05-10T05:09:48;7.90;;;5.24;;
54143;SDS011;40050;47.324;18.792;2023-05-10T05:11:49;10.37;;;5.64;;
54143;SDS011;40050;47.324;18.792;2023-05-10T05:13:50;7.72;;;5.84;;
54143;SDS011;40050;47.324;18.792;2023-05-10T05:15:51;7.17;;;5.34;;
54143;SDS011;40050;47.324;18.792;2023-05-10T05:17:52;8.62;;;5.25;;
54143;SDS011;40050;47.324;18.792;2023-05-10T05:19:53;7.96;;;5.75;;
54143;SDS011;40050;47.324;18.792;2023-05-10T05:21:54;8.26;;;5.45;;
54143;SDS011;40050;47.324;18.792;2023-05-10T05:23:55;9.78;;;5.45;;
54143;SDS011;40050;47.324;18.792;2023-05-10T05:25:56;8.10;;;5.26;;
54143;SDS011;40050;47.324;18.792;2023-05-10T05:27:56;7.83;;;4.96;;
54143;SDS011;40050;47.324;18.792;2023-05-10T05:29:57;6.97;;;5.06;;
54143;SDS011;40050;47.324;18.792;2023-05-10T05:31:58;7.07;;;5.16;;
54143;SDS011;40050;47.324;18.792;2023-05-10T05:33:59;8.21;;;5.46;;
54143;SDS011;40050;47.324;18.792;2023-05-10T05:36:01;6.50;;;5.06;;
54143;SDS011;40050;47.324;18.792;2023-05-10T05:38:01;7.36;;;5.36;;
54143;SDS011;40050;47.324;18.792;2023-05-10T05:40:02;7.08;;;5.07;;
54143;SDS011;40050;47.324;18.792;2023-05-10T05:42:03;5.85;;;4.97;;
54143;SDS011;40050;47.324;18.792;2023-05-10T05:44:04;7.30;;;5.37;;
54143;SDS011;40050;47.324;18.792;2023-05-10T05:46:05;7.97;;;4.87;;
54143;SDS011;40050;47.324;18.792;2023-05-10T05:48:05;7.89;;;4.47;;
54143;SDS011;40050;47.324;18.792;2023-05-10T05:50:07;6.36;;;4.87;;
54143;SDS011;40050;47.324;18.792;2023-05-10T05:52:07;7.91;;;4.88;;
54143;SDS011;40050;47.324;18.792;2023-05-10T05:54:08;6.28;;;4.48;;
54143;SDS011;40050;47.324;18.792;2023-05-10T05:56:09;5.70;;;4.48;;
54143;SDS011;40050;47.324;18.792;2023-05-10T05:58:10;8.43;;;4.48;;
54143;SDS011;40050;47.324;18.792;2023-05-10T06:00:11;6.00;;;4.38;;
54143;SDS011;40050;47.324;18.792;2023-05-10T06:02:12;5.82;;;4.58;;
54143;SDS011;40050;47.324;18.792;2023-05-10T06:04:13;7.95;;;4.68;;
54143;SDS011;40050;47.324;18.792;2023-05-10T06:06:14;6.97;;;4.58;;
54143;SDS011;40050;47.324;18.792;2023-05-10T06:08:14;6.79;;;5.08;;
54143;SDS011;40050;47.324;18.792;2023-05-10T06:10:15;8.35;;;4.58;;
54143;SDS011;40050;47.324;18.792;2023-05-10T06:12:16;6.21;;;4.58;;
54143;SDS011;40050;47.324;18.792;2023-05-10T06:14:19;7.29;;;4.98;;
54143;SDS011;40050;47.324;18.792;2023-05-10T06:16:18;5.14;;;4.08;;
54143;SDS011;40050;47.324;18.792;2023-05-10T06:18:19;6.41;;;4.38;;
54143;SDS011;40050;47.324;18.792;2023-05-10T06:20:20;5.44;;;4.58;;
54143;SDS011;40050;47.324;18.792;2023-05-10T06:22:21;8.07;;;5.08;;
54143;SDS011;40050;47.324;18.792;2023-05-10T06:24:22;6.62;;;4.98;;
54143;SDS011;40050;47.324;18.792;2023-05-10T06:26:23;9.36;;;5.58;;
54143;SDS011;40050;47.324;18.792;2023-05-10T06:28:24;7.70;;;4.69;;
54143;SDS011;40050;47.324;18.792;2023-05-10T06:30:25;7.31;;;4.19;;
54143;SDS011;40050;47.324;18.792;2023-05-10T06:32:26;8.70;;;5.39;;
54143;SDS011;40050;47.324;18.792;2023-05-10T06:34:27;5.58;;;4.39;;
54143;SDS011;40050;47.324;18.792;2023-05-10T06:36:28;6.68;;;4.39;;
54143;SDS011;40050;47.324;18.792;2023-05-10T06:38:28;8.34;;;4.09;;
54143;SDS011;40050;47.324;18.792;2023-05-10T06:40:29;5.99;;;4.59;;
54143;SDS011;40050;47.324;18.792;2023-05-10T06:42:30;6.09;;;4.59;;
54143;SDS011;40050;47.324;18.792;2023-05-10T06:44:31;8.25;;;3.99;;
54143;SDS011;40050;47.324;18.792;2023-05-10T06:46:32;5.79;;;3.79;;
54143;SDS011;40050;47.324;18.792;2023-05-10T06:48:33;3.93;;;3.29;;
54143;SDS011;40050;47.324;18.792;2023-05-10T06:50:34;5.31;;;3.29;;
54143;SDS011;40050;47.324;18.792;2023-05-10T06:52:35;5.01;;;3.49;;
54143;SDS011;40050;47.324;18.792;2023-05-10T06:54:36;6.30;;;3.39;;
54143;SDS011;40050;47.324;18.792;2023-05-10T06:56:37;3.94;;;3.10;;
54143;SDS011;40050;47.324;18.792;2023-05-10T06:58:38;4.73;;;3.20;;
54143;SDS011;40050;47.324;18.792;2023-05-10T07:00:39;6.02;;;3.10;;
54143;SDS011;40050;47.324;18.792;2023-05-10T07:02:40;3.75;;;3.10;;
54143;SDS011;40050;47.324;18.792;2023-05-10T07:04:41;8.29;;;3.10;;
54143;SDS011;40050;47.324;18.792;2023-05-10T07:06:41;4.25;;;3.20;;
54143;SDS011;40050;47.324;18.792;2023-05-10T07:08:42;3.85;;;3.20;;
54143;SDS011;40050;47.324;18.792;2023-05-10T07:10:43;5.13;;;3.40;;
54143;SDS011;40050;47.324;18.792;2023-05-10T07:12:45;5.82;;;3.40;;
54143;SDS011;40050;47.324;18.792;2023-05-10T07:14:46;5.82;;;3.10;;
54143;SDS011;40050;47.324;18.792;2023-05-10T07:16:47;6.12;;;3.40;;
54143;SDS011;40050;47.324;18.792;2023-05-10T07:18:48;4.74;;;3.10;;
54143;SDS011;40050;47.324;18.792;2023-05-10T07:20:49;4.64;;;3.10;;
54143;SDS011;40050;47.324;18.792;2023-05-10T07:22:49;4.25;;;3.10;;
54143;SDS011;40050;47.324;18.792;2023-05-10T07:24:50;4.66;;;3.30;;
54143;SDS011;40050;47.324;18.792;2023-05-10T07:26:51;6.83;;;3.20;;
54143;SDS011;40050;47.324;18.792;2023-05-10T07:28:52;4.75;;;3.00;;
54143;SDS011;40050;47.324;18.792;2023-05-10T07:30:53;6.34;;;2.90;;
54143;SDS011;40050;47.324;18.792;2023-05-10T07:32:54;5.55;;;3.20;;
54143;SDS011;40050;47.324;18.792;2023-05-10T07:34:55;6.25;;;3.30;;
54143;SDS011;40050;47.324;18.792;2023-05-10T07:36:57;7.04;;;3.70;;
54143;SDS011;40050;47.324;18.792;2023-05-10T07:38:57;6.05;;;3.20;;
54143;SDS011;40050;47.324;18.792;2023-05-10T07:40:58;5.06;;;3.20;;
54143;SDS011;40050;47.324;18.792;2023-05-10T07:42:59;5.56;;;3.00;;
54143;SDS011;40050;47.324;18.792;2023-05-10T07:45:00;4.07;;;3.20;;
54143;SDS011;40050;47.324;18.792;2023-05-10T07:47:01;5.76;;;3.10;;
54143;SDS011;40050;47.324;18.792;2023-05-10T07:49:02;5.26;;;3.20;;
54143;SDS011;40050;47.324;18.792;2023-05-10T07:51:03;3.57;;;3.20;;
54143;SDS011;40050;47.324;18.792;2023-05-10T07:53:04;4.97;;;3.10;;
54143;SDS011;40050;47.324;18.792;2023-05-10T07:55:05;6.16;;;2.60;;
54143;SDS011;40050;47.324;18.792;2023-05-10T07:57:05;6.76;;;3.00;;
54143;SDS011;40050;47.324;18.792;2023-05-10T07:59:06;5.77;;;2.80;;
54143;SDS011;40050;47.324;18.792;2023-05-10T08:01:07;3.48;;;2.80;;
54143;SDS011;40050;47.324;18.792;2023-05-10T08:03:08;4.47;;;3.20;;
54143;SDS011;40050;47.324;18.792;2023-05-10T08:05:09;3.68;;;2.80;;
54143;SDS011;40050;47.324;18.792;2023-05-10T08:07:10;5.67;;;2.40;;
54143;SDS011;40050;47.324;18.792;2023-05-10T08:09:11;5.17;;;2.80;;
54143;SDS011;40050;47.324;18.792;2023-05-10T08:11:12;4.17;;;2.90;;
54143;SDS011;40050;47.324;18.792;2023-05-10T08:13:13;5.87;;;3.10;;
54143;SDS011;40050;47.324;18.792;2023-05-10T08:15:14;4.88;;;3.30;;
54143;SDS011;40050;47.324;18.792;2023-05-10T08:17:15;3.78;;;2.70;;
54143;SDS011;40050;47.324;18.792;2023-05-10T08:19:16;3.18;;;2.60;;
54143;SDS011;40050;47.324;18.792;2023-05-10T08:21:17;4.58;;;3.00;;
54143;SDS011;40050;47.324;18.792;2023-05-10T08:23:18;4.08;;;3.10;;
54143;SDS011;40050;47.324;18.792;2023-05-10T08:25:19;5.18;;;3.40;;
54143;SDS011;40050;47.324;18.792;2023-05-10T08:27:19;5.27;;;3.00;;
54143;SDS011;40050;47.324;18.792;2023-05-10T08:29:21;5.08;;;2.70;;
54143;SDS011;40050;47.324;18.792;2023-05-10T08:31:21;4.38;;;2.50;;
54143;SDS011;40050;47.324;18.792;2023-05-10T08:33:22;3.39;;;2.80;;
54143;SDS011;40050;47.324;18.792;2023-05-10T08:35:23;4.28;;;2.80;;
54143;SDS011;40050;47.324;18.792;2023-05-10T08:37:24;5.87;;;3.10;;
54143;SDS011;40050;47.324;18.792;2023-05-10T08:39:25;4.88;;;3.00;;
54143;SDS011;40050;47.324;18.792;2023-05-10T08:41:26;3.88;;;3.00;;
54143;SDS011;40050;47.324;18.792;2023-05-10T08:43:36;4.68;;;2.80;;
54143;SDS011;40050;47.324;18.792;2023-05-10T08:45:39;4.09;;;2.80;;
54143;SDS011;40050;47.324;18.792;2023-05-10T08:47:40;5.48;;;3.00;;
54143;SDS011;40050;47.324;18.792;2023-05-10T08:49:44;4.78;;;2.90;;
54143;SDS011;40050;47.324;18.792;2023-05-10T08:51:50;5.18;;;2.70;;
54143;SDS011;40050;47.324;18.792;2023-05-10T08:53:47;3.88;;;2.80;;
54143;SDS011;40050;47.324;18.792;2023-05-10T08:55:49;3.99;;;2.80;;
54143;SDS011;40050;47.324;18.792;2023-05-10T08:57:50;4.58;;;2.80;;
54143;SDS011;40050;47.324;18.792;2023-05-10T08:59:51;3.19;;;2.80;;
54143;SDS011;40050;47.324;18.792;2023-05-10T09:01:52;5.08;;;2.60;;
54143;SDS011;40050;47.324;18.792;2023-05-10T09:03:53;3.49;;;2.60;;
54143;SDS011;40050;47.324;18.792;2023-05-10T09:05:54;4.58;;;2.80;;
54143;SDS011;40050;47.324;18.792;2023-05-10T09:07:55;3.79;;;2.50;;
54143;SDS011;40050;47.324;18.792;2023-05-10T09:09:57;3.09;;;2.70;;
54143;SDS011;40050;47.324;18.792;2023-05-10T09:11:58;4.68;;;2.40;;
54143;SDS011;40050;47.324;18.792;2023-05-10T09:13:59;3.39;;;2.40;;
54143;SDS011;40050;47.324;18.792;2023-05-10T09:16:00;3.99;;;2.40;;
54143;SDS011;40050;47.324;18.792;2023-05-10T09:18:01;2.69;;;2.30;;
54143;SDS011;40050;47.324;18.792;2023-05-10T09:20:02;3.29;;;2.40;;
54143;SDS011;40050;47.324;18.792;2023-05-10T09:22:02;2.79;;;2.60;;
54143;SDS011;40050;47.324;18.792;2023-05-10T09:24:04;3.29;;;2.70;;
54143;SDS011;40050;47.324;18.792;2023-05-10T09:26:05;4.19;;;2.60;;
54143;SDS011;40050;47.324;18.792;2023-05-10T09:28:06;5.58;;;2.60;;
54143;SDS011;40050;47.324;18.792;2023-05-10T09:30:11;4.89;;;3.10;;
54143;SDS011;40050;47.324;18.792;2023-05-10T09:32:18;5.48;;;2.90;;
54143;SDS011;40050;47.324;18.792;2023-05-10T09:34:20;5.98;;;3.00;;
54143;SDS011;40050;47.324;18.792;2023-05-10T09:36:22;5.18;;;3.20;;
54143;SDS011;40050;47.324;18.792;2023-05-10T09:38:25;4.58;;;3.10;;
54143;SDS011;40050;47.324;18.792;2023-05-10T09:40:27;5.38;;;3.00;;
54143;SDS011;40050;47.324;18.792;2023-05-10T09:42:27;3.49;;;2.50;;
54143;SDS011;40050;47.324;18.792;2023-05-10T09:44:28;3.89;;;2.70;;
54143;SDS011;40050;47.324;18.792;2023-05-10T09:46:28;3.59;;;2.60;;
54143;SDS011;40050;47.324;18.792;2023-05-10T09:48:30;3.39;;;2.40;;
54143;SDS011;40050;47.324;18.792;2023-05-10T09:50:31;3.99;;;3.00;;
54143;SDS011;40050;47.324;18.792;2023-05-10T09:52:50;4.29;;;2.60;;
54143;SDS011;40050;47.324;18.792;2023-05-10T09:54:47;2.79;;;2.50;;
54143;SDS011;40050;47.324;18.792;2023-05-10T09:56:58;4.09;;;2.40;;
54143;SDS011;40050;47.324;18.792;2023-05-10T09:59:02;3.59;;;2.50;;
54143;SDS011;40050;47.324;18.792;2023-05-10T10:01:05;4.89;;;2.50;;
54143;SDS011;40050;47.324;18.792;2023-05-10T10:03:06;3.09;;;2.60;;
54143;SDS011;40050;47.324;18.792;2023-05-10T10:05:10;3.99;;;2.40;;
54143;SDS011;40050;47.324;18.792;2023-05-10T10:07:11;2.89;;;2.50;;
54143;SDS011;40050;47.324;18.792;2023-05-10T10:09:12;3.49;;;2.60;;
54143;SDS011;40050;47.324;18.792;2023-05-10T10:11:13;3.89;;;2.70;;
54143;SDS011;40050;47.324;18.792;2023-05-10T10:13:15;3.79;;;2.80;;
54143;SDS011;40050;47.324;18.792;2023-05-10T10:15:16;3.59;;;2.40;;
54143;SDS011;40050;47.324;18.792;2023-05-10T10:17:18;3.79;;;2.20;;
54143;SDS011;40050;47.324;18.792;2023-05-10T10:19:19;4.09;;;2.20;;
54143;SDS011;40050;47.324;18.792;2023-05-10T10:21:20;5.28;;;2.60;;
54143;SDS011;40050;47.324;18.792;2023-05-10T10:23:21;3.19;;;2.40;;
54143;SDS011;40050;47.324;18.792;2023-05-10T10:25:22;2.59;;;2.30;;
54143;SDS011;40050;47.324;18.792;2023-05-10T10:27:37;4.49;;;2.40;;
54143;SDS011;40050;47.324;18.792;2023-05-10T10:32:19;5.09;;;2.30;;
54143;SDS011;40050;47.324;18.792;2023-05-10T10:34:28;6.18;;;2.20;;
54143;SDS011;40050;47.324;18.792;2023-05-10T10:36:24;3.59;;;2.00;;
54143;SDS011;40050;47.324;18.792;2023-05-10T10:38:25;4.79;;;2.20;;
54143;SDS011;40050;47.324;18.792;2023-05-10T10:40:27;3.59;;;2.00;;
54143;SDS011;40050;47.324;18.792;2023-05-10T10:42:43;3.89;;;2.00;;
54143;SDS011;40050;47.324;18.792;2023-05-10T10:44:44;4.39;;;2.10;;
54143;SDS011;40050;47.324;18.792;2023-05-10T10:47:07;4.49;;;2.00;;
54143;SDS011;40050;47.324;18.792;2023-05-10T10:49:10;2.29;;;2.10;;
54143;SDS011;40050;47.324;18.792;2023-05-10T10:50:56;3.89;;;1.90;;
54143;SDS011;40050;47.324;18.792;2023-05-10T10:53:09;4.89;;;2.50;;
54143;SDS011;40050;47.324;18.792;2023-05-10T10:55:24;3.09;;;2.20;;
54143;SDS011;40050;47.324;18.792;2023-05-10T10:57:17;4.39;;;2.30;;
54143;SDS011;40050;47.324;18.792;2023-05-10T10:59:05;2.99;;;1.90;;
54143;SDS011;40050;47.324;18.792;2023-05-10T11:01:13;2.09;;;1.80;;
54143;SDS011;40050;47.324;18.792;2023-05-10T11:03:17;5.48;;;2.20;;
54143;SDS011;40050;47.324;18.792;2023-05-10T11:07:19;4.39;;;2.10;;
54143;SDS011;40050;47.324;18.792;2023-05-10T11:09:20;3.39;;;1.90;;
54143;SDS011;40050;47.324;18.792;2023-05-10T11:11:36;2.89;;;1.90;;
54143;SDS011;40050;47.324;18.792;2023-05-10T11:13:42;4.89;;;2.20;;
54143;SDS011;40050;47.324;18.792;2023-05-10T11:15:40;3.19;;;2.00;;
54143;SDS011;40050;47.324;18.792;2023-05-10T11:17:53;3.19;;;2.10;;
54143;SDS011;40050;47.324;18.792;2023-05-10T11:20:10;2.29;;;1.60;;
54143;SDS011;40050;47.324;18.792;2023-05-10T11:24:02;3.09;;;1.80;;
54143;SDS011;40050;47.324;18.792;2023-05-10T11:26:02;2.89;;;1.90;;
54143;SDS011;40050;47.324;18.792;2023-05-10T11:28:07;2.00;;;1.80;;
54143;SDS011;40050;47.324;18.792;2023-05-10T11:30:12;3.59;;;1.70;;
54143;SDS011;40050;47.324;18.792;2023-05-10T11:32:15;1.60;;;1.50;;
54143;SDS011;40050;47.324;18.792;2023-05-10T11:34:23;2.99;;;2.00;;
54143;SDS011;40050;47.324;18.792;2023-05-10T11:36:19;3.39;;;1.90;;
54143;SDS011;40050;47.324;18.792;2023-05-10T11:38:19;5.39;;;1.80;;
54143;SDS011;40050;47.324;18.792;2023-05-10T11:40:23;5.98;;;2.00;;
54143;SDS011;40050;47.324;18.792;2023-05-10T11:42:22;2.59;;;1.80;;
54143;SDS011;40050;47.324;18.792;2023-05-10T11:44:33;2.39;;;1.90;;
54143;SDS011;40050;47.324;18.792;2023-05-10T11:46:26;2.69;;;1.70;;
54143;SDS011;40050;47.324;18.792;2023-05-10T11:48:26;2.10;;;1.70;;
54143;SDS011;40050;47.324;18.792;2023-05-10T11:50:28;2.69;;;1.70;;
54143;SDS011;40050;47.324;18.792;2023-05-10T11:52:38;2.40;;;1.70;;
54143;SDS011;40050;47.324;18.792;2023-05-10T11:54:53;2.10;;;1.50;;
54143;SDS011;40050;47.324;18.792;2023-05-10T11:56:42;2.99;;;2.00;;
54143;SDS011;40050;47.324;18.792;2023-05-10T11:58:43;3.89;;;1.60;;
54143;SDS011;40050;47.324;18.792;2023-05-10T12:00:44;2.79;;;1.70;;
54143;SDS011;40050;47.324;18.792;2023-05-10T12:02:45;3.79;;;1.60;;
54143;SDS011;40050;47.324;18.792;2023-05-10T12:04:46;4.29;;;1.70;;
54143;SDS011;40050;47.324;18.792;2023-05-10T12:06:48;2.89;;;1.90;;
54143;SDS011;40050;47.324;18.792;2023-05-10T12:08:51;3.39;;;1.60;;
54143;SDS011;40050;47.324;18.792;2023-05-10T12:11:07;3.29;;;1.70;;
54143;SDS011;40050;47.324;18.792;2023-05-10T12:12:58;2.89;;;1.60;;
54143;SDS011;40050;47.324;18.792;2023-05-10T12:14:59;1.70;;;1.50;;
54143;SDS011;40050;47.324;18.792;2023-05-10T12:17:00;1.60;;;1.40;;
54143;SDS011;40050;47.324;18.792;2023-05-10T12:19:01;4.29;;;1.50;;
54143;SDS011;40050;47.324;18.792;2023-05-10T12:21:03;2.80;;;1.40;;